sensor_id;sensor_type;location;lat;lon;timestamp;P1;durP1;ratioP1;P2;durP2;ratioP2
1747;SDS011;871;47.034;15.394;2023-01-01T05:02:32;144.93;;;57.65;;
1747;SDS011;871;47.034;15.394;2023-01-01T05:04:59;142.82;;;60.28;;
1747;SDS011;871;47.034;15.394;2023-01-01T05:07:25;139.73;;;62.78;;
1747;SDS011;871;47.034;15.394;2023-01-01T05:09:51;128.10;;;59.15;;
1747;SDS011;871;47.034;15.394;2023-01-01T05:12:17;134.23;;;60.00;;
1747;SDS011;871;47.034;15.394;2023-01-01T05:14:43;116.82;;;57.50;;
1747;SDS011;871;47.034;15.394;2023-01-01T05:17:09;116.05;;;53.40;;
1747;SDS011;871;47.034;15.394;2023-01-01T05:19:35;110.93;;;50.25;;
1747;SDS011;871;47.034;15.394;2023-01-01T05:22:01;135.90;;;58.83;;
1747;SDS011;871;47.034;15.394;2023-01-01T05:24:27;138.68;;;60.40;;
1747;SDS011;871;47.034;15.394;2023-01-01T05:26:55;145.13;;;66.45;;
1747;SDS011;871;47.034;15.394;2023-01-01T05:29:21;145.20;;;61.10;;
1747;SDS011;871;47.034;15.394;2023-01-01T05:31:48;132.90;;;57.75;;
1747;SDS011;871;47.034;15.394;2023-01-01T05:34:14;121.95;;;51.15;;
1747;SDS011;871;47.034;15.394;2023-01-01T05:36:42;145.68;;;61.20;;
1747;SDS011;871;47.034;15.394;2023-01-01T05:39:08;176.85;;;75.43;;
1747;SDS011;871;47.034;15.394;2023-01-01T05:41:35;100.45;;;35.30;;
1747;SDS011;871;47.034;15.394;2023-01-01T05:44:02;141.40;;;59.40;;
1747;SDS011;871;47.034;15.394;2023-01-01T05:46:28;221.52;;;102.47;;
1747;SDS011;871;47.034;15.394;2023-01-01T05:48:54;131.80;;;55.13;;
1747;SDS011;871;47.034;15.394;2023-01-01T05:51:21;159.00;;;65.18;;
1747;SDS011;871;47.034;15.394;2023-01-01T05:53:48;174.23;;;66.45;;
1747;SDS011;871;47.034;15.394;2023-01-01T05:56:15;174.02;;;66.63;;
1747;SDS011;871;47.034;15.394;2023-01-01T05:58:42;181.52;;;77.75;;
1747;SDS011;871;47.034;15.394;2023-01-01T06:01:18;174.77;;;75.70;;
1747;SDS011;871;47.034;15.394;2023-01-01T06:03:45;167.15;;;64.43;;
1747;SDS011;871;47.034;15.394;2023-01-01T06:06:15;197.88;;;76.95;;
1747;SDS011;871;47.034;15.394;2023-01-01T06:08:41;153.10;;;62.20;;
1747;SDS011;871;47.034;15.394;2023-01-01T06:11:10;171.20;;;70.15;;
1747;SDS011;871;47.034;15.394;2023-01-01T06:13:36;152.75;;;64.57;;
1747;SDS011;871;47.034;15.394;2023-01-01T06:16:03;140.82;;;60.17;;
1747;SDS011;871;47.034;15.394;2023-01-01T06:18:31;148.35;;;66.07;;
1747;SDS011;871;47.034;15.394;2023-01-01T06:21:19;154.35;;;63.88;;
1747;SDS011;871;47.034;15.394;2023-01-01T06:23:44;147.15;;;63.13;;
1747;SDS011;871;47.034;15.394;2023-01-01T06:26:11;162.60;;;62.05;;
1747;SDS011;871;47.034;15.394;2023-01-01T06:28:37;146.73;;;62.45;;
1747;SDS011;871;47.034;15.394;2023-01-01T06:31:04;143.88;;;59.53;;
1747;SDS011;871;47.034;15.394;2023-01-01T06:33:32;147.77;;;61.85;;
1747;SDS011;871;47.034;15.394;2023-01-01T06:36:00;143.68;;;55.28;;
1747;SDS011;871;47.034;15.394;2023-01-01T06:38:26;145.35;;;55.42;;
1747;SDS011;871;47.034;15.394;2023-01-01T06:41:06;144.77;;;55.45;;
1747;SDS011;871;47.034;15.394;2023-01-01T06:43:33;145.65;;;52.83;;
1747;SDS011;871;47.034;15.394;2023-01-01T06:48:26;142.30;;;53.23;;
1747;SDS011;871;47.034;15.394;2023-01-01T06:50:53;133.73;;;53.30;;
1747;SDS011;871;47.034;15.394;2023-01-01T06:53:22;144.10;;;54.37;;
1747;SDS011;871;47.034;15.394;2023-01-01T06:55:48;135.68;;;53.05;;
1747;SDS011;871;47.034;15.394;2023-01-01T06:58:14;145.48;;;54.65;;
1747;SDS011;871;47.034;15.394;2023-01-01T07:00:40;135.23;;;51.03;;
1747;SDS011;871;47.034;15.394;2023-01-01T07:03:08;133.20;;;52.00;;
1747;SDS011;871;47.034;15.394;2023-01-01T07:05:35;159.20;;;57.33;;
1747;SDS011;871;47.034;15.394;2023-01-01T07:08:01;145.20;;;54.22;;
1747;SDS011;871;47.034;15.394;2023-01-01T07:10:28;139.13;;;53.58;;
1747;SDS011;871;47.034;15.394;2023-01-01T07:12:55;154.77;;;58.35;;
1747;SDS011;871;47.034;15.394;2023-01-01T07:15:24;160.13;;;58.90;;
1747;SDS011;871;47.034;15.394;2023-01-01T07:17:50;155.20;;;56.75;;
1747;SDS011;871;47.034;15.394;2023-01-01T07:20:16;151.67;;;55.20;;
1747;SDS011;871;47.034;15.394;2023-01-01T07:22:42;156.65;;;57.75;;
1747;SDS011;871;47.034;15.394;2023-01-01T07:25:09;155.00;;;60.63;;
1747;SDS011;871;47.034;15.394;2023-01-01T07:27:38;146.25;;;58.22;;
1747;SDS011;871;47.034;15.394;2023-01-01T07:30:05;148.10;;;59.03;;
1747;SDS011;871;47.034;15.394;2023-01-01T07:32:31;168.55;;;66.35;;
1747;SDS011;871;47.034;15.394;2023-01-01T07:34:57;168.13;;;61.92;;
1747;SDS011;871;47.034;15.394;2023-01-01T07:37:23;161.15;;;65.13;;
1747;SDS011;871;47.034;15.394;2023-01-01T07:39:50;169.20;;;65.70;;
1747;SDS011;871;47.034;15.394;2023-01-01T07:42:16;181.65;;;70.22;;
1747;SDS011;871;47.034;15.394;2023-01-01T07:44:44;167.25;;;66.15;;
1747;SDS011;871;47.034;15.394;2023-01-01T07:47:24;172.32;;;66.78;;
1747;SDS011;871;47.034;15.394;2023-01-01T07:49:50;163.32;;;68.03;;
1747;SDS011;871;47.034;15.394;2023-01-01T07:52:17;169.73;;;69.82;;
1747;SDS011;871;47.034;15.394;2023-01-01T07:54:43;154.13;;;68.15;;
1747;SDS011;871;47.034;15.394;2023-01-01T07:57:09;169.40;;;68.60;;
1747;SDS011;871;47.034;15.394;2023-01-01T07:59:35;177.35;;;69.03;;
1747;SDS011;871;47.034;15.394;2023-01-01T08:02:01;171.75;;;74.85;;
1747;SDS011;871;47.034;15.394;2023-01-01T08:04:28;187.88;;;76.07;;
1747;SDS011;871;47.034;15.394;2023-01-01T08:06:54;198.95;;;80.00;;
1747;SDS011;871;47.034;15.394;2023-01-01T08:09:20;185.18;;;85.10;;
1747;SDS011;871;47.034;15.394;2023-01-01T08:11:46;212.50;;;84.22;;
1747;SDS011;871;47.034;15.394;2023-01-01T08:14:12;193.00;;;84.65;;
1747;SDS011;871;47.034;15.394;2023-01-01T08:16:38;217.98;;;83.38;;
1747;SDS011;871;47.034;15.394;2023-01-01T08:19:04;207.05;;;80.43;;
1747;SDS011;871;47.034;15.394;2023-01-01T08:21:30;212.88;;;80.40;;
1747;SDS011;871;47.034;15.394;2023-01-01T08:23:56;195.67;;;85.93;;
1747;SDS011;871;47.034;15.394;2023-01-01T08:26:26;188.27;;;76.70;;
1747;SDS011;871;47.034;15.394;2023-01-01T08:28:53;169.73;;;71.03;;
1747;SDS011;871;47.034;15.394;2023-01-01T08:31:19;168.77;;;72.80;;
1747;SDS011;871;47.034;15.394;2023-01-01T08:33:45;156.77;;;69.28;;
1747;SDS011;871;47.034;15.394;2023-01-01T08:36:11;156.23;;;66.17;;
1747;SDS011;871;47.034;15.394;2023-01-01T08:38:39;176.13;;;64.75;;
1747;SDS011;871;47.034;15.394;2023-01-01T08:41:05;154.82;;;67.55;;
1747;SDS011;871;47.034;15.394;2023-01-01T08:43:31;155.23;;;65.47;;
1747;SDS011;871;47.034;15.394;2023-01-01T08:45:57;155.83;;;63.60;;
1747;SDS011;871;47.034;15.394;2023-01-01T08:48:23;145.30;;;64.43;;
1747;SDS011;871;47.034;15.394;2023-01-01T08:50:53;132.65;;;57.55;;
1747;SDS011;871;47.034;15.394;2023-01-01T08:53:19;154.20;;;62.95;;
1747;SDS011;871;47.034;15.394;2023-01-01T08:55:53;130.40;;;55.90;;
1747;SDS011;871;47.034;15.394;2023-01-01T08:58:19;132.50;;;56.75;;
1747;SDS011;871;47.034;15.394;2023-01-01T09:00:46;130.03;;;54.97;;
1747;SDS011;871;47.034;15.394;2023-01-01T09:03:12;129.27;;;54.78;;
1747;SDS011;871;47.034;15.394;2023-01-01T09:05:38;132.65;;;53.70;;
1747;SDS011;871;47.034;15.394;2023-01-01T09:08:09;114.35;;;44.40;;
1747;SDS011;871;47.034;15.394;2023-01-01T09:10:36;117.93;;;47.03;;
1747;SDS011;871;47.034;15.394;2023-01-01T09:13:02;108.75;;;42.42;;
1747;SDS011;871;47.034;15.394;2023-01-01T09:15:28;90.83;;;36.20;;
1747;SDS011;871;47.034;15.394;2023-01-01T09:17:54;100.43;;;38.58;;
1747;SDS011;871;47.034;15.394;2023-01-01T09:20:22;106.23;;;38.80;;
1747;SDS011;871;47.034;15.394;2023-01-01T09:22:48;100.47;;;37.60;;
1747;SDS011;871;47.034;15.394;2023-01-01T09:25:14;104.93;;;38.03;;
1747;SDS011;871;47.034;15.394;2023-01-01T09:27:41;114.00;;;40.97;;
1747;SDS011;871;47.034;15.394;2023-01-01T09:30:07;98.20;;;40.83;;
1747;SDS011;871;47.034;15.394;2023-01-01T09:32:34;107.40;;;41.20;;
1747;SDS011;871;47.034;15.394;2023-01-01T09:35:01;103.83;;;39.57;;
1747;SDS011;871;47.034;15.394;2023-01-01T09:37:27;89.50;;;35.27;;
1747;SDS011;871;47.034;15.394;2023-01-01T09:39:53;96.77;;;34.30;;
1747;SDS011;871;47.034;15.394;2023-01-01T09:42:37;87.73;;;32.50;;
1747;SDS011;871;47.034;15.394;2023-01-01T09:47:43;80.67;;;30.50;;
1747;SDS011;871;47.034;15.394;2023-01-01T09:50:24;76.20;;;26.47;;
1747;SDS011;871;47.034;15.394;2023-01-01T09:57:53;78.13;;;27.77;;
1747;SDS011;871;47.034;15.394;2023-01-01T10:00:20;73.87;;;25.87;;
1747;SDS011;871;47.034;15.394;2023-01-01T10:10:57;75.97;;;25.50;;
1747;SDS011;871;47.034;15.394;2023-01-01T10:13:36;75.80;;;25.57;;
1747;SDS011;871;47.034;15.394;2023-01-01T10:16:03;70.20;;;22.40;;
1747;SDS011;871;47.034;15.394;2023-01-01T10:18:31;72.87;;;23.27;;
1747;SDS011;871;47.034;15.394;2023-01-01T10:23:54;74.23;;;25.13;;
1747;SDS011;871;47.034;15.394;2023-01-01T10:26:19;79.80;;;25.80;;
1747;SDS011;871;47.034;15.394;2023-01-01T10:28:50;75.43;;;23.90;;
1747;SDS011;871;47.034;15.394;2023-01-01T10:31:35;68.73;;;21.70;;
1747;SDS011;871;47.034;15.394;2023-01-01T10:36:44;66.43;;;21.40;;
1747;SDS011;871;47.034;15.394;2023-01-01T10:39:13;59.00;;;16.33;;
1747;SDS011;871;47.034;15.394;2023-01-01T10:41:40;66.90;;;17.57;;
1747;SDS011;871;47.034;15.394;2023-01-01T10:44:07;60.47;;;17.50;;
1747;SDS011;871;47.034;15.394;2023-01-01T10:46:33;62.17;;;17.13;;
1747;SDS011;871;47.034;15.394;2023-01-01T10:49:04;61.30;;;16.90;;
1747;SDS011;871;47.034;15.394;2023-01-01T10:51:31;60.10;;;15.77;;
1747;SDS011;871;47.034;15.394;2023-01-01T10:53:57;55.13;;;14.53;;
1747;SDS011;871;47.034;15.394;2023-01-01T10:56:23;57.17;;;15.63;;
1747;SDS011;871;47.034;15.394;2023-01-01T10:58:53;57.30;;;14.60;;
1747;SDS011;871;47.034;15.394;2023-01-01T11:01:23;58.70;;;14.50;;
1747;SDS011;871;47.034;15.394;2023-01-01T11:06:30;58.90;;;15.97;;
1747;SDS011;871;47.034;15.394;2023-01-01T11:08:58;60.70;;;15.83;;
1747;SDS011;871;47.034;15.394;2023-01-01T11:11:28;58.67;;;15.77;;
1747;SDS011;871;47.034;15.394;2023-01-01T11:13:55;79.10;;;17.37;;
1747;SDS011;871;47.034;15.394;2023-01-01T11:16:23;63.10;;;16.80;;
1747;SDS011;871;47.034;15.394;2023-01-01T11:18:49;59.97;;;16.60;;
1747;SDS011;871;47.034;15.394;2023-01-01T11:21:22;57.37;;;14.57;;
1747;SDS011;871;47.034;15.394;2023-01-01T11:23:50;59.43;;;16.37;;
1747;SDS011;871;47.034;15.394;2023-01-01T11:26:20;55.87;;;14.70;;
1747;SDS011;871;47.034;15.394;2023-01-01T11:28:59;57.40;;;15.07;;
1747;SDS011;871;47.034;15.394;2023-01-01T11:31:27;57.53;;;15.40;;
1747;SDS011;871;47.034;15.394;2023-01-01T11:33:54;55.47;;;15.77;;
1747;SDS011;871;47.034;15.394;2023-01-01T11:36:25;58.80;;;15.97;;
1747;SDS011;871;47.034;15.394;2023-01-01T11:41:41;61.03;;;16.17;;
1747;SDS011;871;47.034;15.394;2023-01-01T11:44:08;57.77;;;15.60;;
1747;SDS011;871;47.034;15.394;2023-01-01T11:46:36;57.53;;;14.83;;
1747;SDS011;871;47.034;15.394;2023-01-01T11:49:02;58.90;;;15.40;;
1747;SDS011;871;47.034;15.394;2023-01-01T11:51:37;56.40;;;14.93;;
1747;SDS011;871;47.034;15.394;2023-01-01T11:54:07;57.17;;;15.10;;
1747;SDS011;871;47.034;15.394;2023-01-01T11:56:33;59.00;;;16.37;;
1747;SDS011;871;47.034;15.394;2023-01-01T11:59:05;58.60;;;16.20;;
1747;SDS011;871;47.034;15.394;2023-01-01T12:04:07;70.07;;;17.10;;
1747;SDS011;871;47.034;15.394;2023-01-01T12:06:36;58.93;;;15.20;;
1747;SDS011;871;47.034;15.394;2023-01-01T12:11:37;64.33;;;16.30;;
1747;SDS011;871;47.034;15.394;2023-01-01T12:14:21;57.33;;;15.60;;
1747;SDS011;871;47.034;15.394;2023-01-01T12:17:03;56.63;;;15.60;;
1747;SDS011;871;47.034;15.394;2023-01-01T12:19:34;57.10;;;14.80;;
1747;SDS011;871;47.034;15.394;2023-01-01T12:22:01;55.37;;;15.27;;
1747;SDS011;871;47.034;15.394;2023-01-01T12:24:31;56.90;;;15.10;;
1747;SDS011;871;47.034;15.394;2023-01-01T12:34:50;58.70;;;16.60;;
1747;SDS011;871;47.034;15.394;2023-01-01T12:42:43;54.00;;;13.93;;
1747;SDS011;871;47.034;15.394;2023-01-01T12:53:30;60.67;;;15.17;;
1747;SDS011;871;47.034;15.394;2023-01-01T13:00:53;62.83;;;16.17;;
1747;SDS011;871;47.034;15.394;2023-01-01T13:03:21;53.63;;;14.53;;
1747;SDS011;871;47.034;15.394;2023-01-01T13:05:49;58.67;;;15.30;;
1747;SDS011;871;47.034;15.394;2023-01-01T13:08:16;58.53;;;14.97;;
1747;SDS011;871;47.034;15.394;2023-01-01T13:10:43;58.90;;;15.27;;
1747;SDS011;871;47.034;15.394;2023-01-01T13:13:10;59.43;;;14.70;;
1747;SDS011;871;47.034;15.394;2023-01-01T13:18:04;55.80;;;14.53;;
1747;SDS011;871;47.034;15.394;2023-01-01T13:20:31;56.30;;;14.70;;
1747;SDS011;871;47.034;15.394;2023-01-01T13:22:57;55.10;;;13.53;;
1747;SDS011;871;47.034;15.394;2023-01-01T13:25:23;56.60;;;13.10;;
1747;SDS011;871;47.034;15.394;2023-01-01T13:54:08;54.80;;;13.03;;
1747;SDS011;871;47.034;15.394;2023-01-01T13:56:46;56.07;;;15.00;;
1747;SDS011;871;47.034;15.394;2023-01-01T14:01:53;55.60;;;15.27;;
1747;SDS011;871;47.034;15.394;2023-01-01T14:04:28;54.67;;;14.40;;
1747;SDS011;871;47.034;15.394;2023-01-01T14:06:55;52.07;;;13.27;;
1747;SDS011;871;47.034;15.394;2023-01-01T14:09:23;55.70;;;15.80;;
1747;SDS011;871;47.034;15.394;2023-01-01T14:11:49;56.10;;;15.10;;
1747;SDS011;871;47.034;15.394;2023-01-01T14:16:56;55.43;;;14.50;;
1747;SDS011;871;47.034;15.394;2023-01-01T14:19:24;56.23;;;15.13;;
1747;SDS011;871;47.034;15.394;2023-01-01T14:21:50;61.97;;;15.17;;
1747;SDS011;871;47.034;15.394;2023-01-01T14:24:17;59.23;;;14.50;;
1747;SDS011;871;47.034;15.394;2023-01-01T14:26:44;57.97;;;14.97;;
1747;SDS011;871;47.034;15.394;2023-01-01T14:29:20;53.67;;;13.90;;
1747;SDS011;871;47.034;15.394;2023-01-01T14:31:49;54.30;;;15.07;;
1747;SDS011;871;47.034;15.394;2023-01-01T14:34:23;68.67;;;15.40;;
1747;SDS011;871;47.034;15.394;2023-01-01T14:36:50;61.57;;;14.43;;
1747;SDS011;871;47.034;15.394;2023-01-01T14:39:21;58.47;;;14.83;;
1747;SDS011;871;47.034;15.394;2023-01-01T14:41:47;60.67;;;16.37;;
1747;SDS011;871;47.034;15.394;2023-01-01T14:44:15;63.83;;;17.67;;
1747;SDS011;871;47.034;15.394;2023-01-01T14:46:46;59.90;;;16.33;;
1747;SDS011;871;47.034;15.394;2023-01-01T14:49:14;62.83;;;17.43;;
1747;SDS011;871;47.034;15.394;2023-01-01T14:51:43;64.90;;;17.50;;
1747;SDS011;871;47.034;15.394;2023-01-01T14:54:17;63.80;;;15.90;;
1747;SDS011;871;47.034;15.394;2023-01-01T14:56:47;68.03;;;16.10;;
1747;SDS011;871;47.034;15.394;2023-01-01T14:59:32;68.00;;;18.63;;
1747;SDS011;871;47.034;15.394;2023-01-01T15:04:25;63.73;;;17.47;;
1747;SDS011;871;47.034;15.394;2023-01-01T15:06:55;64.57;;;18.70;;
1747;SDS011;871;47.034;15.394;2023-01-01T15:09:21;56.53;;;15.30;;
1747;SDS011;871;47.034;15.394;2023-01-01T15:11:52;66.40;;;13.93;;
1747;SDS011;871;47.034;15.394;2023-01-01T15:14:37;61.40;;;15.23;;
1747;SDS011;871;47.034;15.394;2023-01-01T15:17:08;63.50;;;18.97;;
1747;SDS011;871;47.034;15.394;2023-01-01T15:19:34;66.77;;;18.20;;
1747;SDS011;871;47.034;15.394;2023-01-01T15:22:06;66.30;;;19.43;;
1747;SDS011;871;47.034;15.394;2023-01-01T15:24:33;60.57;;;15.07;;
1747;SDS011;871;47.034;15.394;2023-01-01T15:27:02;65.43;;;15.93;;
1747;SDS011;871;47.034;15.394;2023-01-01T15:31:58;725.33;;;345.20;;
1747;SDS011;871;47.034;15.394;2023-01-01T15:36:52;221.27;;;79.67;;
1747;SDS011;871;47.034;15.394;2023-01-01T15:39:19;88.23;;;28.53;;
1747;SDS011;871;47.034;15.394;2023-01-01T15:41:47;69.17;;;20.77;;
1747;SDS011;871;47.034;15.394;2023-01-01T15:44:20;75.13;;;19.77;;
1747;SDS011;871;47.034;15.394;2023-01-01T15:46:49;64.90;;;17.30;;
1747;SDS011;871;47.034;15.394;2023-01-01T15:49:23;62.13;;;16.93;;
1747;SDS011;871;47.034;15.394;2023-01-01T15:51:51;61.50;;;16.07;;
1747;SDS011;871;47.034;15.394;2023-01-01T15:54:17;60.40;;;14.00;;
1747;SDS011;871;47.034;15.394;2023-01-01T15:56:43;56.27;;;13.53;;
1747;SDS011;871;47.034;15.394;2023-01-01T16:01:39;55.80;;;11.90;;
1747;SDS011;871;47.034;15.394;2023-01-01T16:04:07;51.30;;;11.13;;
1747;SDS011;871;47.034;15.394;2023-01-01T16:06:33;53.83;;;12.33;;
1747;SDS011;871;47.034;15.394;2023-01-01T16:09:09;54.03;;;13.10;;
1747;SDS011;871;47.034;15.394;2023-01-01T16:11:37;57.23;;;13.67;;
1747;SDS011;871;47.034;15.394;2023-01-01T16:14:03;54.10;;;11.50;;
1747;SDS011;871;47.034;15.394;2023-01-01T16:16:29;58.93;;;13.93;;
1747;SDS011;871;47.034;15.394;2023-01-01T16:18:55;57.10;;;11.80;;
1747;SDS011;871;47.034;15.394;2023-01-01T16:21:26;50.63;;;12.07;;
1747;SDS011;871;47.034;15.394;2023-01-01T16:23:53;53.57;;;12.20;;
1747;SDS011;871;47.034;15.394;2023-01-01T16:26:19;53.23;;;12.07;;
1747;SDS011;871;47.034;15.394;2023-01-01T16:28:45;53.17;;;13.67;;
1747;SDS011;871;47.034;15.394;2023-01-01T16:31:12;49.90;;;12.77;;
1747;SDS011;871;47.034;15.394;2023-01-01T16:33:39;53.00;;;13.83;;
1747;SDS011;871;47.034;15.394;2023-01-01T16:36:08;59.10;;;15.00;;
1747;SDS011;871;47.034;15.394;2023-01-01T16:38:34;55.80;;;13.33;;
1747;SDS011;871;47.034;15.394;2023-01-01T16:41:01;51.07;;;12.17;;
1747;SDS011;871;47.034;15.394;2023-01-01T16:43:27;55.30;;;13.20;;
1747;SDS011;871;47.034;15.394;2023-01-01T16:45:53;53.23;;;13.13;;
1747;SDS011;871;47.034;15.394;2023-01-01T16:48:20;58.47;;;15.00;;
1747;SDS011;871;47.034;15.394;2023-01-01T16:50:49;54.67;;;13.50;;
1747;SDS011;871;47.034;15.394;2023-01-01T16:53:16;50.37;;;12.53;;
1747;SDS011;871;47.034;15.394;2023-01-01T16:55:42;56.47;;;13.10;;
1747;SDS011;871;47.034;15.394;2023-01-01T16:58:08;57.50;;;14.03;;
1747;SDS011;871;47.034;15.394;2023-01-01T17:00:34;51.50;;;13.10;;
1747;SDS011;871;47.034;15.394;2023-01-01T17:03:01;55.97;;;12.27;;
1747;SDS011;871;47.034;15.394;2023-01-01T17:05:28;56.90;;;14.20;;
1747;SDS011;871;47.034;15.394;2023-01-01T17:07:54;55.07;;;13.40;;
1747;SDS011;871;47.034;15.394;2023-01-01T17:10:20;59.70;;;15.27;;
1747;SDS011;871;47.034;15.394;2023-01-01T17:12:46;59.17;;;15.20;;
1747;SDS011;871;47.034;15.394;2023-01-01T17:15:13;53.73;;;14.70;;
1747;SDS011;871;47.034;15.394;2023-01-01T17:17:39;56.10;;;13.00;;
1747;SDS011;871;47.034;15.394;2023-01-01T17:20:05;56.97;;;16.67;;
1747;SDS011;871;47.034;15.394;2023-01-01T17:22:31;54.50;;;14.53;;
1747;SDS011;871;47.034;15.394;2023-01-01T17:24:57;59.55;;;15.02;;
1747;SDS011;871;47.034;15.394;2023-01-01T17:27:23;55.80;;;15.20;;
1747;SDS011;871;47.034;15.394;2023-01-01T17:29:49;55.40;;;13.27;;
1747;SDS011;871;47.034;15.394;2023-01-01T17:32:16;55.53;;;14.33;;
1747;SDS011;871;47.034;15.394;2023-01-01T17:34:42;64.17;;;16.67;;
1747;SDS011;871;47.034;15.394;2023-01-01T17:37:08;55.00;;;13.53;;
1747;SDS011;871;47.034;15.394;2023-01-01T17:39:34;52.50;;;14.70;;
1747;SDS011;871;47.034;15.394;2023-01-01T17:42:01;62.83;;;15.13;;
1747;SDS011;871;47.034;15.394;2023-01-01T17:44:27;53.10;;;12.83;;
1747;SDS011;871;47.034;15.394;2023-01-01T17:46:53;56.77;;;14.23;;
1747;SDS011;871;47.034;15.394;2023-01-01T17:49:19;58.05;;;15.05;;
1747;SDS011;871;47.034;15.394;2023-01-01T17:51:47;60.65;;;15.95;;
1747;SDS011;871;47.034;15.394;2023-01-01T17:54:13;56.73;;;14.40;;
1747;SDS011;871;47.034;15.394;2023-01-01T17:56:39;56.07;;;15.73;;
1747;SDS011;871;47.034;15.394;2023-01-01T17:59:05;64.50;;;15.00;;
1747;SDS011;871;47.034;15.394;2023-01-01T18:01:32;57.47;;;14.88;;
1747;SDS011;871;47.034;15.394;2023-01-01T18:04:03;53.50;;;13.35;;
1747;SDS011;871;47.034;15.394;2023-01-01T18:06:31;54.60;;;13.20;;
1747;SDS011;871;47.034;15.394;2023-01-01T18:08:59;54.93;;;14.90;;
1747;SDS011;871;47.034;15.394;2023-01-01T18:11:26;53.70;;;14.10;;
1747;SDS011;871;47.034;15.394;2023-01-01T18:13:56;58.35;;;16.42;;
1747;SDS011;871;47.034;15.394;2023-01-01T18:16:22;55.42;;;16.00;;
1747;SDS011;871;47.034;15.394;2023-01-01T18:18:48;51.87;;;13.73;;
1747;SDS011;871;47.034;15.394;2023-01-01T18:21:17;57.55;;;14.82;;
1747;SDS011;871;47.034;15.394;2023-01-01T18:23:46;57.38;;;15.18;;
1747;SDS011;871;47.034;15.394;2023-01-01T18:26:12;54.58;;;13.20;;
1747;SDS011;871;47.034;15.394;2023-01-01T18:28:39;56.63;;;12.80;;
1747;SDS011;871;47.034;15.394;2023-01-01T18:31:12;60.05;;;15.45;;
1747;SDS011;871;47.034;15.394;2023-01-01T18:33:39;58.60;;;15.50;;
1747;SDS011;871;47.034;15.394;2023-01-01T18:36:06;52.75;;;13.10;;
1747;SDS011;871;47.034;15.394;2023-01-01T18:38:33;60.67;;;15.55;;
1747;SDS011;871;47.034;15.394;2023-01-01T18:43:45;56.92;;;14.10;;
1747;SDS011;871;47.034;15.394;2023-01-01T18:46:11;55.67;;;14.77;;
1747;SDS011;871;47.034;15.394;2023-01-01T18:48:37;57.10;;;14.48;;
1747;SDS011;871;47.034;15.394;2023-01-01T18:51:09;61.55;;;15.85;;
1747;SDS011;871;47.034;15.394;2023-01-01T18:53:39;58.28;;;14.65;;
1747;SDS011;871;47.034;15.394;2023-01-01T18:56:09;61.43;;;16.13;;
1747;SDS011;871;47.034;15.394;2023-01-01T18:58:36;55.38;;;12.48;;
1747;SDS011;871;47.034;15.394;2023-01-01T19:01:05;56.70;;;13.88;;
1747;SDS011;871;47.034;15.394;2023-01-01T19:03:31;55.00;;;13.98;;
1747;SDS011;871;47.034;15.394;2023-01-01T19:05:58;57.33;;;14.57;;
1747;SDS011;871;47.034;15.394;2023-01-01T19:08:25;53.83;;;14.57;;
1747;SDS011;871;47.034;15.394;2023-01-01T19:10:57;52.17;;;13.63;;
1747;SDS011;871;47.034;15.394;2023-01-01T19:15:54;52.72;;;13.57;;
1747;SDS011;871;47.034;15.394;2023-01-01T19:18:27;58.17;;;14.98;;
1747;SDS011;871;47.034;15.394;2023-01-01T19:23:35;59.65;;;14.18;;
1747;SDS011;871;47.034;15.394;2023-01-01T19:26:03;49.57;;;11.87;;
1747;SDS011;871;47.034;15.394;2023-01-01T19:28:31;51.33;;;12.02;;
1747;SDS011;871;47.034;15.394;2023-01-01T19:30:59;52.63;;;12.50;;
1747;SDS011;871;47.034;15.394;2023-01-01T19:33:26;53.95;;;12.20;;
1747;SDS011;871;47.034;15.394;2023-01-01T19:35:52;45.58;;;11.48;;
1747;SDS011;871;47.034;15.394;2023-01-01T19:38:18;50.20;;;12.13;;
1747;SDS011;871;47.034;15.394;2023-01-01T19:40:44;55.78;;;13.13;;
1747;SDS011;871;47.034;15.394;2023-01-01T19:43:10;54.25;;;14.45;;
1747;SDS011;871;47.034;15.394;2023-01-01T19:45:36;56.13;;;12.02;;
1747;SDS011;871;47.034;15.394;2023-01-01T19:48:03;50.65;;;12.10;;
1747;SDS011;871;47.034;15.394;2023-01-01T19:50:29;48.38;;;12.25;;
1747;SDS011;871;47.034;15.394;2023-01-01T19:52:55;49.70;;;12.68;;
1747;SDS011;871;47.034;15.394;2023-01-01T19:55:21;48.10;;;11.70;;
1747;SDS011;871;47.034;15.394;2023-01-01T19:57:47;53.90;;;12.48;;
1747;SDS011;871;47.034;15.394;2023-01-01T20:00:13;52.83;;;13.20;;
1747;SDS011;871;47.034;15.394;2023-01-01T20:02:40;53.88;;;12.45;;
1747;SDS011;871;47.034;15.394;2023-01-01T20:05:06;51.40;;;12.40;;
1747;SDS011;871;47.034;15.394;2023-01-01T20:07:33;58.40;;;12.90;;
1747;SDS011;871;47.034;15.394;2023-01-01T20:10:02;47.67;;;11.20;;
1747;SDS011;871;47.034;15.394;2023-01-01T20:12:31;52.50;;;12.20;;
1747;SDS011;871;47.034;15.394;2023-01-01T20:14:57;54.47;;;13.00;;
1747;SDS011;871;47.034;15.394;2023-01-01T20:17:23;49.70;;;11.40;;
1747;SDS011;871;47.034;15.394;2023-01-01T20:19:50;48.55;;;11.85;;
1747;SDS011;871;47.034;15.394;2023-01-01T20:22:18;52.50;;;13.02;;
1747;SDS011;871;47.034;15.394;2023-01-01T20:24:47;47.78;;;11.00;;
1747;SDS011;871;47.034;15.394;2023-01-01T20:27:14;50.25;;;11.43;;
1747;SDS011;871;47.034;15.394;2023-01-01T20:29:48;51.53;;;12.82;;
1747;SDS011;871;47.034;15.394;2023-01-01T20:32:15;53.00;;;13.60;;
1747;SDS011;871;47.034;15.394;2023-01-01T20:34:42;50.10;;;13.65;;
1747;SDS011;871;47.034;15.394;2023-01-01T20:37:08;49.75;;;12.48;;
1747;SDS011;871;47.034;15.394;2023-01-01T20:39:53;48.47;;;11.48;;
1747;SDS011;871;47.034;15.394;2023-01-01T20:42:19;54.80;;;14.18;;
1747;SDS011;871;47.034;15.394;2023-01-01T20:44:46;49.55;;;12.90;;
1747;SDS011;871;47.034;15.394;2023-01-01T20:47:12;53.13;;;12.35;;
1747;SDS011;871;47.034;15.394;2023-01-01T20:49:40;47.00;;;10.57;;
1747;SDS011;871;47.034;15.394;2023-01-01T20:52:07;47.60;;;12.10;;
1747;SDS011;871;47.034;15.394;2023-01-01T20:54:33;54.20;;;13.18;;
1747;SDS011;871;47.034;15.394;2023-01-01T20:57:00;54.67;;;11.98;;
1747;SDS011;871;47.034;15.394;2023-01-01T20:59:26;53.15;;;13.40;;
1747;SDS011;871;47.034;15.394;2023-01-01T21:01:52;48.05;;;10.40;;
1747;SDS011;871;47.034;15.394;2023-01-01T21:04:19;48.47;;;11.57;;
1747;SDS011;871;47.034;15.394;2023-01-01T21:06:45;48.13;;;12.55;;
1747;SDS011;871;47.034;15.394;2023-01-01T21:09:11;49.85;;;14.07;;
1747;SDS011;871;47.034;15.394;2023-01-01T21:11:39;51.70;;;14.25;;
1747;SDS011;871;47.034;15.394;2023-01-01T21:14:06;47.45;;;12.38;;
1747;SDS011;871;47.034;15.394;2023-01-01T21:16:37;51.75;;;15.23;;
1747;SDS011;871;47.034;15.394;2023-01-01T21:19:06;57.45;;;14.98;;
1747;SDS011;871;47.034;15.394;2023-01-01T21:21:43;59.63;;;15.20;;
1747;SDS011;871;47.034;15.394;2023-01-01T21:24:31;54.20;;;15.77;;
1747;SDS011;871;47.034;15.394;2023-01-01T21:27:00;52.45;;;12.82;;
1747;SDS011;871;47.034;15.394;2023-01-01T21:29:30;58.63;;;14.60;;
1747;SDS011;871;47.034;15.394;2023-01-01T21:32:17;52.60;;;13.38;;
1747;SDS011;871;47.034;15.394;2023-01-01T21:34:44;48.05;;;12.38;;
1747;SDS011;871;47.034;15.394;2023-01-01T21:40:32;61.83;;;14.27;;
1747;SDS011;871;47.034;15.394;2023-01-01T21:45:41;53.10;;;14.90;;
1747;SDS011;871;47.034;15.394;2023-01-01T21:50:34;54.00;;;13.20;;